Tropical Cyclones
[Index]
Main Index Home Page Stock Weather Photos Extreme Storms Discussion Storm News and Storm Chasing Reports Tropical Cyclones / Hurricanes / Typhoons Weather Data and Links Wild Fires / Bushfires Weather Observation Techniques Weather Picture Catalogue Tornado Pictures and Reports Stock Video Footage and DVDs for sale
Season 2006-2007 Tropical Cyclone ANITA Track Map
Season 2006-2007 Summaries (Operational Data): [AU] [SIO] [SPAC] [SH]
<<- Previous TC | 2006-2007 Season | Next TC ->>

click for intensity scale information  Lat/long Grid: Show Hide

 Date Labels: Show Hide

Operational Tropical Cyclone Data : JTWC Advisories

Name: ANITA
Number: 0703

26 Nov 2006 18:00 UTC to 03 Dec 2006 06:00 UTC

    date/time    lat    long     hPa   cat  kts
2006-11-26 18    6.4    47.4                             
2006-11-27 00    6.6    46.8    1005         20          
2006-11-27 06    6.9    47.3                             
2006-11-27 12    7.7    46.7    1005         20          
2006-11-27 18    7.9    46.1                             
2006-11-28 00    8.8    45.8    1003         25          
2006-11-28 06    9.1    45.6    1001         25          
2006-11-28 12    9.7    44.3    1002         25          
2006-11-28 18    9.1    42.3    1003         25          
2006-11-29 00    9.6    42.0    1003         25          
2006-11-29 06   10.1    41.8    1003         25          
2006-11-29 12   10.5    41.8    1002         25          
2006-11-29 18   11.1    41.8    1000         30          
2006-11-30 00   11.6    41.8     999         30          
2006-11-30 06   12.1    41.9     997         30          
2006-11-30 12   13.2    42.3     997         30          
2006-11-30 18   13.8    42.3     997         30          
2006-12-01 00   14.4    42.6     995    1    35          
2006-12-01 06   14.7    42.5     994    1    35          
2006-12-01 12   15.5    42.4     994    1    35          
2006-12-01 18   16.1    42.7     994    1    35          
2006-12-02 00   16.2    42.4     999         30          
2006-12-02 06   16.7    42.4     999         30          
2006-12-02 12   17.0    42.3     998         30          
2006-12-02 18   17.8    41.8    1000         25          
2006-12-03 00   18.1    41.9    1002         25          
2006-12-03 06   18.1    41.5    1004         20          
Winds are 10-min average.

Tropical cyclone tracks developed by Michael Bath using operational warnings and advisories and Google Maps.


[Australian Severe Weather index] [Copyright Notice] [Email Contacts] [Search This Site] [Privacy Policy]
Document: tropical_cyclone_anita.htm Updated: 28 May 2013